createdAt,value
2022-08-12T00:04:05.546Z,66.20
2022-08-12T00:09:26.911Z,66.70
2022-08-12T00:14:47.478Z,67.20
2022-08-12T00:20:09.763Z,67.40
2022-08-12T00:25:55.737Z,67.50
2022-08-12T00:31:11.575Z,68.10
2022-08-12T00:36:35.375Z,68.90
2022-08-12T00:41:58.013Z,68.90
2022-08-12T00:47:02.501Z,68.10
2022-08-12T00:52:09.969Z,69.00
2022-08-12T00:57:15.678Z,69.70
2022-08-12T01:02:24.992Z,69.60
2022-08-12T01:07:47.709Z,69.80
2022-08-12T01:12:52.073Z,70.30
2022-08-12T01:17:55.641Z,70.60
2022-08-12T01:23:39.051Z,70.30
2022-08-12T01:28:45.923Z,70.10
2022-08-12T01:33:59.801Z,69.10
2022-08-12T01:39:04.946Z,70.10
2022-08-12T01:44:11.617Z,70.30
2022-08-12T01:49:41.655Z,70.60
2022-08-12T01:54:46.825Z,71.30
2022-08-12T01:59:59.619Z,71.30
2022-08-12T02:05:33.273Z,71.30
2022-08-12T02:11:07.572Z,71.20
2022-08-12T02:16:22.807Z,72.70
2022-08-12T02:21:39.335Z,72.10
2022-08-12T02:26:45.652Z,72.40
2022-08-12T02:31:51.120Z,72.40
2022-08-12T02:36:56.139Z,72.50
2022-08-12T02:42:06.816Z,72.80
2022-08-12T02:47:55.637Z,72.70
2022-08-12T02:52:40.322Z,72.90
2022-08-12T02:57:44.701Z,73.90
2022-08-12T03:02:54.109Z,74.50
2022-08-12T03:08:01.082Z,74.90
2022-08-12T03:13:07.340Z,75.30
2022-08-12T03:18:24.891Z,75.30
2022-08-12T03:23:32.394Z,74.60
2022-08-12T03:28:54.453Z,74.30
2022-08-12T03:34:03.565Z,74.40
2022-08-12T03:39:35.605Z,74.30
2022-08-12T03:45:05.919Z,74.30
2022-08-12T03:50:28.437Z,74.10
2022-08-12T03:55:48.933Z,73.40
2022-08-12T04:00:52.637Z,73.50
2022-08-12T04:05:57.923Z,73.70
2022-08-12T04:11:18.652Z,73.80
2022-08-12T04:16:22.172Z,73.60
2022-08-12T04:21:26.842Z,73.50
2022-08-12T04:26:30.616Z,73.30
2022-08-12T04:31:35.017Z,72.90
2022-08-12T04:36:40.817Z,73.00
2022-08-12T04:41:50.323Z,73.50
2022-08-12T04:47:02.149Z,73.70
2022-08-12T04:52:07.252Z,73.20
2022-08-12T04:57:10.516Z,73.50
2022-08-12T05:02:16.976Z,73.20
2022-08-12T05:07:26.513Z,72.90
2022-08-12T05:12:36.679Z,72.80
2022-08-12T05:17:41.677Z,75.40
2022-08-12T05:22:50.101Z,73.50
2022-08-12T05:28:00.632Z,72.20
2022-08-12T05:33:05.845Z,72.40
2022-08-12T05:38:28.581Z,71.50
2022-08-12T05:43:33.944Z,71.00
2022-08-12T05:48:37.233Z,69.90
2022-08-12T05:53:42.600Z,70.20
2022-08-12T05:58:45.861Z,69.40
2022-08-12T06:03:51.173Z,67.80
2022-08-12T06:08:56.182Z,67.30
2022-08-12T06:13:59.593Z,66.90
2022-08-12T06:19:03.740Z,63.70
2022-08-12T06:24:08.987Z,62.80
2022-08-12T06:30:07.999Z,63.10
2022-08-12T06:35:25.148Z,61.30
2022-08-12T06:40:07.117Z,55.80
2022-08-12T06:45:12.527Z,56.60
2022-08-12T06:50:17.021Z,55.30
2022-08-12T06:55:25.648Z,53.30
2022-08-12T07:00:32.785Z,51.60
2022-08-12T07:05:37.446Z,55.50
2022-08-12T07:10:44.617Z,50.80
2022-08-12T07:15:48.055Z,49.60
2022-08-12T07:20:52.969Z,48.10
2022-08-12T07:25:59.214Z,47.40
2022-08-12T07:31:05.125Z,46.00
2022-08-12T07:36:11.934Z,44.90
2022-08-12T07:41:18.907Z,46.50
2022-08-12T07:46:24.702Z,45.70
2022-08-12T07:51:28.527Z,43.20
2022-08-12T07:56:33.690Z,42.80
2022-08-12T08:01:43.735Z,41.50
2022-08-12T08:06:52.027Z,42.30
2022-08-12T08:12:18.530Z,40.90
2022-08-12T08:17:26.121Z,39.70
2022-08-12T08:22:41.111Z,36.90
2022-08-12T08:27:47.690Z,37.60
2022-08-12T08:32:51.169Z,40.00
2022-08-12T08:38:08.462Z,38.10
2022-08-12T08:43:16.276Z,38.50
2022-08-12T08:48:19.816Z,39.70
2022-08-12T08:53:23.098Z,38.90
2022-08-12T08:58:28.267Z,40.20
2022-08-12T09:05:09.508Z,40.90
2022-08-12T09:08:56.901Z,40.20
2022-08-12T09:14:11.311Z,38.90
2022-08-12T09:19:27.653Z,37.50
2022-08-12T09:24:31.900Z,35.10
2022-08-12T09:30:10.831Z,33.20
2022-08-12T09:34:59.999Z,29.50
2022-08-12T09:40:57.533Z,30.30
2022-08-12T09:46:06.605Z,28.90
2022-08-12T09:50:55.596Z,30.50
2022-08-12T09:56:56.589Z,30.20
2022-08-12T10:01:35.492Z,29.60
2022-08-12T10:06:54.783Z,28.90
2022-08-12T10:12:31.097Z,28.40
2022-08-12T10:18:06.317Z,30.60
2022-08-12T10:23:01.742Z,28.90
2022-08-12T10:28:25.452Z,27.70
2022-08-12T10:33:32.273Z,28.20
2022-08-12T10:38:41.592Z,28.30
2022-08-12T10:43:54.214Z,28.00
2022-08-12T10:49:06.603Z,28.80
2022-08-12T10:54:27.741Z,26.70
2022-08-12T11:00:29.688Z,28.50
2022-08-12T11:04:58.205Z,29.10
2022-08-12T11:10:02.755Z,31.90
2022-08-12T11:15:18.739Z,31.00
2022-08-12T11:20:31.229Z,27.70
2022-08-12T11:25:55.709Z,27.80
2022-08-12T11:30:58.036Z,28.80
2022-08-12T11:36:13.992Z,26.50
2022-08-12T11:41:28.174Z,29.70
2022-08-12T11:46:37.273Z,32.20
2022-08-12T11:51:41.925Z,35.30
2022-08-12T11:56:59.300Z,35.60
2022-08-12T12:02:05.264Z,37.20
2022-08-12T12:07:11.468Z,38.40
2022-08-12T12:12:15.458Z,38.10
2022-08-12T12:17:18.780Z,38.20
2022-08-12T12:22:27.132Z,36.60
2022-08-12T12:28:04.423Z,34.40
2022-08-12T12:33:09.577Z,31.00
2022-08-12T12:38:16.011Z,29.30
2022-08-12T12:43:29.148Z,26.50
2022-08-12T12:48:44.670Z,25.30
2022-08-12T12:54:08.575Z,28.90
2022-08-12T12:59:54.774Z,34.30
2022-08-12T13:04:37.332Z,36.40
2022-08-12T13:09:46.635Z,36.60
2022-08-12T13:14:50.186Z,36.60
2022-08-12T13:19:54.673Z,33.60
2022-08-12T13:25:01.764Z,31.00
2022-08-12T13:30:11.123Z,29.00
2022-08-12T13:35:19.871Z,31.70
2022-08-12T13:40:39.992Z,35.10
2022-08-12T13:45:43.590Z,35.20
2022-08-12T13:50:48.093Z,37.20
2022-08-12T13:56:01.616Z,34.10
2022-08-12T14:01:09.243Z,35.30
2022-08-12T14:06:15.445Z,36.20
2022-08-12T14:11:25.334Z,40.90
2022-08-12T14:16:37.905Z,45.30
2022-08-12T14:21:59.404Z,46.20
2022-08-12T14:27:09.342Z,46.50
2022-08-12T14:32:16.860Z,43.60
2022-08-12T14:37:56.168Z,40.20
2022-08-12T14:42:47.874Z,39.00
2022-08-12T14:47:58.568Z,34.90
2022-08-12T14:58:28.534Z,29.30
2022-08-12T15:03:46.626Z,37.40
2022-08-12T15:08:56.574Z,39.50
2022-08-12T15:14:01.579Z,36.30
2022-08-12T15:20:11.885Z,36.40
2022-08-12T15:24:37.405Z,33.60
2022-08-12T15:29:42.634Z,30.00
2022-08-12T15:34:49.729Z,27.20
2022-08-12T15:40:01.248Z,35.50
2022-08-12T15:45:08.744Z,39.60
2022-08-12T15:50:23.049Z,40.90
2022-08-12T15:55:31.366Z,44.60
2022-08-12T16:00:40.786Z,44.10
2022-08-12T16:06:19.413Z,45.20
2022-08-12T16:11:15.221Z,44.60
2022-08-12T16:16:23.943Z,43.70
2022-08-12T16:21:51.990Z,46.00
2022-08-12T16:26:54.117Z,50.60
2022-08-12T16:32:00.249Z,50.30
2022-08-12T16:37:04.577Z,49.90
2022-08-12T16:42:10.754Z,47.70
2022-08-12T16:47:15.680Z,46.90
2022-08-12T16:52:22.921Z,48.20
2022-08-12T16:57:34.797Z,49.60
2022-08-12T17:02:40.469Z,50.40
2022-08-12T17:07:50.665Z,52.30
2022-08-12T17:12:56.143Z,52.80
2022-08-12T17:18:15.249Z,53.40
2022-08-12T17:23:47.902Z,53.40
2022-08-12T17:28:53.396Z,53.70
2022-08-12T17:33:58.908Z,54.40
2022-08-12T17:39:04.839Z,55.70
2022-08-12T17:44:13.110Z,56.10
2022-08-12T17:50:03.532Z,57.00
2022-08-12T17:54:46.330Z,58.40
2022-08-12T17:59:51.712Z,59.40
2022-08-12T18:05:10.194Z,60.10
2022-08-12T18:10:38.123Z,61.10
2022-08-12T18:16:05.801Z,62.00
2022-08-12T18:21:11.394Z,61.90
2022-08-12T18:26:31.529Z,62.40
2022-08-12T18:31:44.517Z,63.10
2022-08-12T18:37:16.398Z,64.10
2022-08-12T18:42:27.926Z,64.70
2022-08-12T18:47:47.066Z,65.10
2022-08-12T18:52:55.539Z,65.80
2022-08-12T18:58:08.613Z,66.30
2022-08-12T19:03:38.640Z,67.00
2022-08-12T19:08:42.866Z,67.70
2022-08-12T19:14:09.360Z,68.20
2022-08-12T19:19:18.267Z,69.30
2022-08-12T19:24:41.717Z,70.40
2022-08-12T19:30:05.932Z,71.70
2022-08-12T19:36:08.150Z,71.60
2022-08-12T19:40:37.288Z,71.60
2022-08-12T19:45:48.710Z,72.50
2022-08-12T19:50:56.726Z,73.10
2022-08-12T19:56:02.761Z,72.90
2022-08-12T20:01:11.385Z,72.60
2022-08-12T20:06:21.801Z,73.30
2022-08-12T20:12:13.856Z,73.80
2022-08-12T20:16:57.256Z,74.80
2022-08-12T20:22:08.537Z,75.40
2022-08-12T20:27:29.593Z,75.70
2022-08-12T20:32:54.022Z,76.20
2022-08-12T20:38:07.619Z,76.80
2022-08-12T20:43:24.204Z,77.30
2022-08-12T20:48:33.537Z,77.20
2022-08-12T20:53:58.074Z,77.00
2022-08-12T20:59:04.317Z,77.30
2022-08-12T21:04:27.892Z,78.10
2022-08-12T21:09:34.306Z,79.70
2022-08-12T21:14:53.202Z,81.30
2022-08-12T21:20:06.706Z,82.10
2022-08-12T21:25:19.291Z,82.40
2022-08-12T21:30:27.336Z,83.20
2022-08-12T21:35:40.166Z,83.30
2022-08-12T21:40:51.576Z,83.80
2022-08-12T21:46:01.345Z,84.60
2022-08-12T21:51:23.229Z,84.60
2022-08-12T21:56:34.668Z,84.30
2022-08-12T22:01:44.273Z,84.70
2022-08-12T22:06:54.501Z,86.10
2022-08-12T22:12:20.293Z,85.70
2022-08-12T22:17:33.872Z,85.80
2022-08-12T22:22:56.984Z,86.10
2022-08-12T22:28:17.769Z,87.00
2022-08-12T22:33:29.453Z,87.90
2022-08-12T22:38:56.009Z,88.10
2022-08-12T22:44:20.294Z,89.40
2022-08-12T22:49:37.364Z,90.30
2022-08-12T22:55:02.894Z,90.90
2022-08-12T23:00:24.666Z,91.00
2022-08-12T23:05:57.530Z,92.00
2022-08-12T23:10:56.870Z,92.70
2022-08-12T23:16:02.756Z,93.50
2022-08-12T23:21:13.584Z,94.50
2022-08-12T23:26:40.035Z,95.20
2022-08-12T23:32:01.775Z,95.70
2022-08-12T23:37:09.551Z,96.10
2022-08-12T23:42:16.867Z,95.90
2022-08-12T23:47:22.677Z,95.30
2022-08-12T23:52:28.566Z,95.50
2022-08-12T23:58:18.496Z,95.60
